createdAt,value
2019-04-20T00:00:10.936Z,9.11
2019-04-20T00:01:12.551Z,9.14
2019-04-20T00:02:14.291Z,9.10
2019-04-20T00:03:09.697Z,9.08
2019-04-20T00:04:17.050Z,9.11
2019-04-20T00:05:09.394Z,9.04
2019-04-20T00:06:09.263Z,9.08
2019-04-20T00:07:10.164Z,9.10
2019-04-20T00:08:17.867Z,9.01
2019-04-20T00:09:15.875Z,9.01
2019-04-20T00:10:15.072Z,9.02
2019-04-20T00:11:17.656Z,9.04
2019-04-20T00:12:18.046Z,9.05
2019-04-20T00:13:21.600Z,8.92
2019-04-20T00:14:16.215Z,9.02
2019-04-20T00:15:09.514Z,9.08
2019-04-20T00:16:10.265Z,8.87
2019-04-20T00:17:09.592Z,8.91
2019-04-20T00:18:11.428Z,8.89
2019-04-20T00:19:10.676Z,8.94
2019-04-20T00:20:15.947Z,8.94
2019-04-20T00:21:14.124Z,8.87
2019-04-20T00:22:12.350Z,8.89
2019-04-20T00:23:12.386Z,8.89
2019-04-20T00:24:18.670Z,8.80
2019-04-20T00:25:14.089Z,8.87
2019-04-20T00:26:17.334Z,8.81
2019-04-20T00:27:31.322Z,8.77
2019-04-20T00:28:30.214Z,8.71
2019-04-20T00:29:31.687Z,8.73
2019-04-20T00:30:31.449Z,8.71
2019-04-20T00:31:28.313Z,8.70
2019-04-20T00:32:19.972Z,8.73
2019-04-20T00:33:27.296Z,8.74
2019-04-20T00:34:18.317Z,8.68
2019-04-20T00:35:10.494Z,8.71
2019-04-20T00:36:11.750Z,8.71
2019-04-20T00:37:10.884Z,8.65
2019-04-20T00:38:10.418Z,8.61
2019-04-20T00:39:13.138Z,8.61
2019-04-20T00:40:10.496Z,8.55
2019-04-20T00:41:13.691Z,8.48
2019-04-20T00:42:13.357Z,8.52
2019-04-20T00:43:13.281Z,8.55
2019-04-20T00:44:17.257Z,8.53
2019-04-20T00:45:18.158Z,8.43
2019-04-20T00:46:18.295Z,8.38
2019-04-20T00:47:21.691Z,8.37
2019-04-20T00:48:23.221Z,8.36
2019-04-20T00:49:29.226Z,8.34
2019-04-20T00:50:29.106Z,8.29
2019-04-20T00:51:48.147Z,8.26
2019-04-20T00:52:27.651Z,8.22
2019-04-20T00:53:21.630Z,8.23
2019-04-20T00:54:11.497Z,8.26
2019-04-20T00:55:11.135Z,8.29
2019-04-20T00:56:11.897Z,8.20
2019-04-20T00:57:21.760Z,8.16
2019-04-20T00:58:20.197Z,8.11
2019-04-20T00:59:25.765Z,8.18
2019-04-20T01:00:27.417Z,8.16
2019-04-20T01:01:31.021Z,8.15
2019-04-20T01:02:27.264Z,8.12
2019-04-20T01:03:32.345Z,8.05
2019-04-20T01:04:30.722Z,8.11
2019-04-20T01:05:22.902Z,8.10
2019-04-20T01:06:26.911Z,8.10
2019-04-20T01:07:24.414Z,8.12
2019-04-20T01:08:12.850Z,8.08
2019-04-20T01:09:11.932Z,8.11
2019-04-20T01:10:13.072Z,8.11
2019-04-20T01:11:12.340Z,8.12
2019-04-20T01:12:17.377Z,8.02
2019-04-20T01:13:17.024Z,8.08
2019-04-20T01:14:14.163Z,8.05
2019-04-20T01:15:23.022Z,8.05
2019-04-20T01:16:27.603Z,8.02
2019-04-20T01:17:13.283Z,7.98
2019-04-20T01:18:14.040Z,7.98
2019-04-20T01:19:12.021Z,7.97
2019-04-20T01:20:12.059Z,7.92
2019-04-20T01:21:17.833Z,7.92
2019-04-20T01:22:15.928Z,7.92
2019-04-20T01:23:17.296Z,7.85
2019-04-20T01:24:20.159Z,7.85
2019-04-20T01:25:19.551Z,7.85
2019-04-20T01:26:17.181Z,7.80
2019-04-20T01:27:27.349Z,7.79
2019-04-20T01:28:29.923Z,7.71
2019-04-20T01:29:21.579Z,7.63
2019-04-20T01:30:20.988Z,7.71
2019-04-20T01:31:22.100Z,7.69
2019-04-20T01:32:23.300Z,7.60
2019-04-20T01:33:26.024Z,7.74
2019-04-20T01:34:26.659Z,7.75
2019-04-20T01:35:31.626Z,7.58
2019-04-20T01:36:33.433Z,7.58
2019-04-20T01:37:25.776Z,7.63
2019-04-20T01:38:30.739Z,7.63
2019-04-20T01:39:25.361Z,7.53
2019-04-20T01:40:13.059Z,7.58
2019-04-20T01:41:14.024Z,7.57
2019-04-20T01:42:13.109Z,7.49
2019-04-20T01:43:14.168Z,7.52
2019-04-20T01:44:13.452Z,7.49
2019-04-20T01:45:19.837Z,7.46
2019-04-20T01:46:17.137Z,7.39
2019-04-20T01:47:13.395Z,7.32
2019-04-20T01:48:20.276Z,7.45
2019-04-20T01:49:18.278Z,7.45
2019-04-20T01:50:20.311Z,7.32
2019-04-20T01:51:20.769Z,7.40
2019-04-20T01:52:20.281Z,7.39
2019-04-20T01:53:24.774Z,7.27
2019-04-20T01:54:25.826Z,7.42
2019-04-20T01:55:27.832Z,7.35
2019-04-20T01:56:27.486Z,7.34
2019-04-20T01:57:21.861Z,7.45
2019-04-20T01:58:36.352Z,7.32
2019-04-20T01:59:26.617Z,7.39
2019-04-20T02:00:21.080Z,7.31
2019-04-20T02:01:21.015Z,7.32
2019-04-20T02:02:17.770Z,7.32
2019-04-20T02:03:14.917Z,7.25
2019-04-20T02:04:21.353Z,7.28
2019-04-20T02:05:20.625Z,7.30
2019-04-20T02:06:18.250Z,7.23
2019-04-20T02:07:18.412Z,7.20
2019-04-20T02:08:19.804Z,7.17
2019-04-20T02:09:19.155Z,7.12
2019-04-20T02:10:16.569Z,7.15
2019-04-20T02:11:21.962Z,7.10
2019-04-20T02:12:20.291Z,7.12
2019-04-20T02:13:15.290Z,7.02
2019-04-20T02:14:23.323Z,7.12
2019-04-20T02:15:23.197Z,7.06
2019-04-20T02:16:22.683Z,7.06
2019-04-20T02:17:21.367Z,7.09
2019-04-20T02:18:29.710Z,7.09
2019-04-20T02:19:30.706Z,7.03
2019-04-20T02:20:35.931Z,7.06
2019-04-20T02:21:27.606Z,6.92
2019-04-20T02:22:34.247Z,6.92
2019-04-20T02:23:25.171Z,6.87
2019-04-20T02:24:16.083Z,6.87
2019-04-20T02:25:14.572Z,6.87
2019-04-20T02:26:15.908Z,6.92
2019-04-20T02:27:14.784Z,6.77
2019-04-20T02:28:36.195Z,6.87
2019-04-20T02:29:34.866Z,6.85
2019-04-20T02:30:47.534Z,6.88
2019-04-20T02:31:55.619Z,6.91
2019-04-20T02:32:47.682Z,6.81
2019-04-20T02:34:53.746Z,6.81
2019-04-20T02:35:56.685Z,6.85
2019-04-20T02:37:56.805Z,6.87
2019-04-20T02:39:11.732Z,6.84
2019-04-20T02:39:57.918Z,6.81
2019-04-20T02:40:51.042Z,6.77
2019-04-20T02:41:53.352Z,6.87
2019-04-20T02:42:50.847Z,6.85
2019-04-20T02:44:01.307Z,6.84
2019-04-20T02:44:49.880Z,6.88
2019-04-20T02:45:45.332Z,6.91
2019-04-20T02:46:46.918Z,6.87
2019-04-20T02:47:47.342Z,6.87
2019-04-20T02:48:55.897Z,6.84
2019-04-20T02:50:56.265Z,6.81
2019-04-20T02:51:46.920Z,6.80
2019-04-20T02:54:14.074Z,6.74
2019-04-20T02:54:48.982Z,6.74
2019-04-20T02:55:50.024Z,6.76
2019-04-20T02:56:58.807Z,6.74
2019-04-20T02:57:58.453Z,6.73
2019-04-20T02:58:50.251Z,6.73
2019-04-20T03:00:38.245Z,6.58
2019-04-20T03:01:36.655Z,6.62
2019-04-20T03:02:33.556Z,6.51
2019-04-20T03:03:26.940Z,6.56
2019-04-20T03:04:25.685Z,6.49
2019-04-20T03:05:28.242Z,6.49
2019-04-20T03:06:26.717Z,6.52
2019-04-20T03:07:31.128Z,6.51
2019-04-20T03:08:33.030Z,6.58
2019-04-20T03:09:38.930Z,6.55
2019-04-20T03:10:43.016Z,6.59
2019-04-20T03:11:48.225Z,6.43
2019-04-20T03:12:38.389Z,6.56
2019-04-20T03:13:36.753Z,6.44
2019-04-20T03:14:32.453Z,6.52
2019-04-20T03:15:37.661Z,6.38
2019-04-20T03:16:37.481Z,6.43
2019-04-20T03:17:38.642Z,6.41
2019-04-20T03:18:34.994Z,6.33
2019-04-20T03:19:36.222Z,6.41
2019-04-20T03:20:41.678Z,6.44
2019-04-20T03:21:37.959Z,6.33
2019-04-20T03:23:01.086Z,6.43
2019-04-20T03:23:42.822Z,6.41
2019-04-20T03:24:43.693Z,6.36
2019-04-20T03:25:36.034Z,6.34
2019-04-20T03:26:36.444Z,6.37
2019-04-20T03:27:33.033Z,6.40
2019-04-20T03:28:37.580Z,6.43
2019-04-20T03:29:43.870Z,6.43
2019-04-20T03:34:05.849Z,6.40
2019-04-20T03:35:43.175Z,6.30
2019-04-20T03:36:49.552Z,6.34
2019-04-20T03:37:42.172Z,6.31
2019-04-20T03:38:35.854Z,6.31
2019-04-20T03:39:31.316Z,6.22
2019-04-20T03:40:36.356Z,6.21
2019-04-20T03:41:26.108Z,6.21
2019-04-20T03:42:18.174Z,6.27
2019-04-20T03:43:18.098Z,6.25
2019-04-20T03:44:21.500Z,6.19
2019-04-20T03:45:20.149Z,6.19
2019-04-20T03:46:25.463Z,6.22
2019-04-20T03:47:30.391Z,6.27
2019-04-20T03:48:38.137Z,6.21
2019-04-20T03:49:43.679Z,6.21
2019-04-20T03:50:41.293Z,6.22
2019-04-20T03:51:41.897Z,6.17
2019-04-20T03:52:37.618Z,6.18
2019-04-20T03:53:39.270Z,6.11
2019-04-20T03:54:33.317Z,6.11
2019-04-20T03:55:37.000Z,6.11
2019-04-20T03:56:42.003Z,6.12
2019-04-20T03:57:40.688Z,6.09
2019-04-20T03:58:33.425Z,6.08
2019-04-20T03:59:39.333Z,6.09
2019-04-20T04:00:37.504Z,6.08
2019-04-20T04:02:04.668Z,6.09
2019-04-20T04:02:54.215Z,6.08
2019-04-20T04:03:48.803Z,6.04
2019-04-20T04:04:38.694Z,6.08
2019-04-20T04:05:36.968Z,5.97
2019-04-20T04:06:32.857Z,5.99
2019-04-20T04:07:28.344Z,6.04
2019-04-20T04:08:27.803Z,6.01
2019-04-20T04:09:29.201Z,6.04
2019-04-20T04:10:30.502Z,6.04
2019-04-20T04:11:34.823Z,5.97
2019-04-20T04:12:28.432Z,6.04
2019-04-20T04:13:18.862Z,6.00
2019-04-20T04:14:19.846Z,6.06
2019-04-20T04:15:19.007Z,6.06
2019-04-20T04:16:21.904Z,5.93
2019-04-20T04:17:25.002Z,6.04
2019-04-20T04:18:25.992Z,6.01
2019-04-20T04:19:25.169Z,5.90
2019-04-20T04:20:21.021Z,5.96
2019-04-20T04:21:35.134Z,5.97
2019-04-20T04:22:37.936Z,5.90
2019-04-20T04:23:37.831Z,5.90
2019-04-20T04:24:30.668Z,5.99
2019-04-20T04:25:31.675Z,5.96
2019-04-20T04:26:34.060Z,5.89
2019-04-20T04:27:40.524Z,5.90
2019-04-20T04:28:37.334Z,5.96
2019-04-20T04:29:42.936Z,5.94
2019-04-20T04:30:34.212Z,5.93
2019-04-20T04:31:40.903Z,5.86
2019-04-20T04:33:02.431Z,5.91
2019-04-20T04:33:53.263Z,5.99
2019-04-20T04:34:38.738Z,6.03
2019-04-20T04:35:31.172Z,5.93
2019-04-20T04:36:36.026Z,5.99
2019-04-20T04:37:37.639Z,5.97
2019-04-20T04:38:43.508Z,5.99
2019-04-20T04:39:47.185Z,5.85
2019-04-20T04:40:49.494Z,5.83
2019-04-20T04:41:38.082Z,5.90
2019-04-20T04:42:42.288Z,5.91
2019-04-20T04:43:40.204Z,5.93
2019-04-20T04:44:34.314Z,5.99
2019-04-20T04:45:24.023Z,5.93
2019-04-20T04:46:20.691Z,6.01
2019-04-20T04:47:19.975Z,5.91
2019-04-20T04:48:27.683Z,5.91
2019-04-20T04:49:30.694Z,5.93
2019-04-20T04:50:24.796Z,6.01
2019-04-20T04:51:25.641Z,6.03
2019-04-20T04:52:28.751Z,5.97
2019-04-20T04:53:32.000Z,6.09
2019-04-20T04:54:28.793Z,6.15
2019-04-20T04:55:34.110Z,6.11
2019-04-20T04:56:23.425Z,6.04
2019-04-20T04:57:20.349Z,5.97
2019-04-20T04:58:21.582Z,6.03
2019-04-20T04:59:21.375Z,6.08
2019-04-20T05:00:24.666Z,6.09
2019-04-20T05:01:25.931Z,6.03
2019-04-20T05:02:23.606Z,6.14
2019-04-20T05:03:41.280Z,6.14
2019-04-20T05:04:40.136Z,6.12
2019-04-20T05:05:41.353Z,6.21
2019-04-20T05:06:33.199Z,6.25
2019-04-20T05:07:34.269Z,6.25
2019-04-20T05:08:27.328Z,6.19
2019-04-20T05:09:22.184Z,6.22
2019-04-20T05:10:20.840Z,6.25
2019-04-20T05:11:21.721Z,6.21
2019-04-20T05:12:24.267Z,6.27
2019-04-20T05:13:21.942Z,6.36
2019-04-20T05:14:27.093Z,6.40
2019-04-20T05:15:34.875Z,6.34
2019-04-20T05:16:43.177Z,6.41
2019-04-20T05:17:43.840Z,6.40
2019-04-20T05:18:44.965Z,6.36
2019-04-20T05:19:45.780Z,6.48
2019-04-20T05:20:41.732Z,6.44
2019-04-20T05:21:49.869Z,6.48
2019-04-20T05:22:42.880Z,6.44
2019-04-20T05:23:35.394Z,6.61
2019-04-20T05:24:34.869Z,6.62
2019-04-20T05:25:37.789Z,6.66
2019-04-20T05:26:42.679Z,6.64
2019-04-20T05:27:39.741Z,6.69
2019-04-20T05:28:33.598Z,6.77
2019-04-20T05:29:27.374Z,6.69
2019-04-20T05:30:22.416Z,6.73
2019-04-20T05:31:24.454Z,6.88
2019-04-20T05:32:32.577Z,6.79
2019-04-20T05:33:34.390Z,6.85
2019-04-20T05:34:45.211Z,6.91
2019-04-20T05:35:47.654Z,6.88
2019-04-20T05:36:42.766Z,7.06
2019-04-20T05:37:48.854Z,7.07
2019-04-20T05:39:02.458Z,7.12
2019-04-20T05:39:44.415Z,7.06
2019-04-20T05:40:38.989Z,7.20
2019-04-20T05:41:41.753Z,7.15
2019-04-20T05:42:44.233Z,7.23
2019-04-20T05:43:38.316Z,7.28
2019-04-20T05:44:44.292Z,7.28
2019-04-20T05:45:38.036Z,7.35
2019-04-20T05:46:42.423Z,7.42
2019-04-20T05:47:43.145Z,7.45
2019-04-20T05:48:48.768Z,7.53
2019-04-20T05:49:40.394Z,7.48
2019-04-20T05:50:42.404Z,7.58
2019-04-20T05:51:53.967Z,7.50
2019-04-20T05:52:50.233Z,7.63
2019-04-20T05:53:45.981Z,7.67
2019-04-20T05:54:46.048Z,7.69
2019-04-20T05:55:43.200Z,7.69
2019-04-20T05:57:00.570Z,7.75
2019-04-20T05:57:41.683Z,7.75
2019-04-20T05:58:38.773Z,7.95
2019-04-20T05:59:51.772Z,8.00
2019-04-20T06:00:51.258Z,7.98
2019-04-20T06:01:49.922Z,8.01
2019-04-20T06:02:45.863Z,8.02
2019-04-20T06:03:42.353Z,8.15
2019-04-20T06:04:56.000Z,8.20
2019-04-20T06:05:54.823Z,8.22
2019-04-20T06:06:45.112Z,8.29
2019-04-20T06:07:42.399Z,8.33
2019-04-20T06:08:57.061Z,8.45
2019-04-20T06:09:46.361Z,8.44
2019-04-20T06:10:45.631Z,8.70
2019-04-20T06:11:56.204Z,8.80
2019-04-20T06:12:40.032Z,8.83
2019-04-20T06:13:38.328Z,8.94
2019-04-20T06:14:39.194Z,9.02
2019-04-20T06:15:43.441Z,9.13
2019-04-20T06:16:52.170Z,9.13
2019-04-20T06:17:44.544Z,9.23
2019-04-20T06:18:39.067Z,9.21
2019-04-20T06:19:39.611Z,9.38
2019-04-20T06:21:12.105Z,9.35
2019-04-20T06:22:03.365Z,9.50
2019-04-20T06:22:48.551Z,9.57
2019-04-20T06:23:51.942Z,9.61
2019-04-20T06:24:59.168Z,9.68
2019-04-20T06:25:54.818Z,9.81
2019-04-20T06:27:48.923Z,9.91
2019-04-20T06:28:38.833Z,9.90
2019-04-20T06:29:47.030Z,9.91
2019-04-20T06:30:38.673Z,9.96
2019-04-20T06:31:45.689Z,10.04
2019-04-20T06:32:49.679Z,10.14
2019-04-20T06:34:01.436Z,10.22
2019-04-20T06:34:50.094Z,10.27
2019-04-20T06:36:04.925Z,10.30
2019-04-20T06:37:06.954Z,10.38
2019-04-20T06:37:54.865Z,10.42
2019-04-20T06:40:58.008Z,10.67
2019-04-20T06:42:48.182Z,10.73
2019-04-20T06:43:45.797Z,10.71
2019-04-20T06:44:41.336Z,10.73
2019-04-20T06:45:51.287Z,10.86
2019-04-20T06:46:57.040Z,11.02
2019-04-20T06:47:48.586Z,11.07
2019-04-20T06:48:46.124Z,11.11
2019-04-20T06:49:38.015Z,11.09
2019-04-20T06:50:44.452Z,11.22
2019-04-20T06:51:47.614Z,11.32
2019-04-20T06:52:37.322Z,11.36
2019-04-20T06:53:47.575Z,11.36
2019-04-20T06:54:45.182Z,11.49
2019-04-20T06:55:48.453Z,11.52
2019-04-20T06:56:52.509Z,11.60
2019-04-20T06:57:46.418Z,11.70
2019-04-20T06:59:08.406Z,11.69
2019-04-20T06:59:47.705Z,11.75
2019-04-20T07:00:48.201Z,11.75
2019-04-20T07:01:57.026Z,11.85
2019-04-20T07:04:02.252Z,11.96
2019-04-20T07:04:54.478Z,12.09
2019-04-20T07:05:47.712Z,12.14
2019-04-20T07:06:56.263Z,12.21
2019-04-20T07:07:47.501Z,12.31
2019-04-20T07:08:56.936Z,12.34
2019-04-20T07:10:02.451Z,12.41
2019-04-20T07:10:56.413Z,12.38
2019-04-20T07:11:46.677Z,12.52
2019-04-20T07:12:41.960Z,12.52
2019-04-20T07:13:37.396Z,12.50
2019-04-20T07:14:37.943Z,12.60
2019-04-20T07:15:40.193Z,12.71
2019-04-20T07:16:45.063Z,12.65
2019-04-20T07:18:01.779Z,12.78
2019-04-20T07:18:50.319Z,12.86
2019-04-20T07:19:44.426Z,12.79
2019-04-20T07:20:55.455Z,13.00
2019-04-20T07:22:06.976Z,13.04
2019-04-20T07:22:46.644Z,13.11
2019-04-20T07:23:47.972Z,13.07
2019-04-20T07:24:53.238Z,13.15
2019-04-20T07:25:47.822Z,13.10
2019-04-20T07:26:54.399Z,13.28
2019-04-20T07:27:47.928Z,13.28
2019-04-20T07:28:54.474Z,13.39
2019-04-20T07:29:52.310Z,13.44
2019-04-20T07:30:46.398Z,13.55
2019-04-20T07:31:44.189Z,13.52
2019-04-20T07:32:52.701Z,13.66
2019-04-20T07:33:46.348Z,13.63
2019-04-20T07:34:47.551Z,13.69
2019-04-20T07:35:46.153Z,13.79
2019-04-20T07:37:04.614Z,13.85
2019-04-20T07:38:21.478Z,13.79
2019-04-20T07:38:52.455Z,13.92
2019-04-20T07:39:40.194Z,14.02
2019-04-20T07:40:41.928Z,14.04
2019-04-20T07:41:54.733Z,14.21
2019-04-20T07:42:52.631Z,14.20
2019-04-20T07:43:58.977Z,14.21
2019-04-20T07:44:42.794Z,14.35
2019-04-20T07:45:46.608Z,14.43
2019-04-20T07:47:07.299Z,14.47
2019-04-20T07:48:51.910Z,14.61
2019-04-20T07:49:45.735Z,14.68
2019-04-20T07:50:40.968Z,14.77
2019-04-20T07:51:33.900Z,14.83
2019-04-20T07:52:42.190Z,14.88
2019-04-20T07:53:40.306Z,14.86
2019-04-20T07:55:06.390Z,15.03
2019-04-20T07:55:51.037Z,15.10
2019-04-20T07:56:50.513Z,15.13
2019-04-20T07:57:41.886Z,15.14
2019-04-20T07:58:36.946Z,15.13
2019-04-20T07:59:48.820Z,15.17
2019-04-20T08:00:58.669Z,15.25
2019-04-20T08:01:54.764Z,15.23
2019-04-20T08:02:56.073Z,15.31
2019-04-20T08:03:50.528Z,15.41
2019-04-20T08:04:42.232Z,15.51
2019-04-20T08:05:39.236Z,15.54
2019-04-20T08:06:36.878Z,15.51
2019-04-20T08:07:39.068Z,15.69
2019-04-20T08:08:43.965Z,15.75
2019-04-20T08:09:37.931Z,15.84
2019-04-20T08:10:39.419Z,15.89
2019-04-20T08:12:57.686Z,15.93
2019-04-20T08:13:51.440Z,15.97
2019-04-20T08:14:57.545Z,15.97
2019-04-20T08:15:51.265Z,16.04
2019-04-20T08:17:05.313Z,16.14
2019-04-20T08:17:51.295Z,16.20
2019-04-20T08:18:50.726Z,16.11
2019-04-20T08:19:48.459Z,16.15
2019-04-20T08:20:52.647Z,16.31
2019-04-20T08:21:50.026Z,16.25
2019-04-20T08:22:51.685Z,16.41
2019-04-20T08:23:49.060Z,16.34
2019-04-20T08:24:46.804Z,16.34
2019-04-20T08:25:42.841Z,16.45
2019-04-20T08:26:35.997Z,16.41
2019-04-20T08:27:29.720Z,16.42
2019-04-20T08:28:36.017Z,16.41
2019-04-20T08:29:44.202Z,16.53
2019-04-20T08:30:41.903Z,16.49
2019-04-20T08:31:41.615Z,16.64
2019-04-20T08:32:48.134Z,16.63
2019-04-20T08:33:58.456Z,16.66
2019-04-20T08:34:47.515Z,16.67
2019-04-20T08:35:52.458Z,16.76
2019-04-20T08:36:52.542Z,16.81
2019-04-20T08:38:12.204Z,16.83
2019-04-20T08:39:58.794Z,16.85
2019-04-20T08:40:49.008Z,17.03
2019-04-20T08:41:50.120Z,17.11
2019-04-20T08:43:05.490Z,17.11
2019-04-20T08:43:53.887Z,17.18
2019-04-20T08:45:51.070Z,17.28
2019-04-20T08:47:00.057Z,17.33
2019-04-20T08:47:59.480Z,17.26
2019-04-20T08:48:50.942Z,17.44
2019-04-20T08:49:56.643Z,17.41
2019-04-20T08:50:53.307Z,17.51
2019-04-20T08:51:55.644Z,17.51
2019-04-20T08:53:54.093Z,17.46
2019-04-20T08:54:41.684Z,17.48
2019-04-20T08:55:46.593Z,17.54
2019-04-20T08:56:39.370Z,17.52
2019-04-20T08:57:31.323Z,17.71
2019-04-20T08:58:31.491Z,17.62
2019-04-20T08:59:33.199Z,17.71
2019-04-20T09:00:35.786Z,17.70
2019-04-20T09:01:32.691Z,17.71
2019-04-20T09:02:30.527Z,17.70
2019-04-20T09:03:41.989Z,17.70
2019-04-20T09:04:38.793Z,17.75
2019-04-20T09:05:42.487Z,17.78
2019-04-20T09:06:45.688Z,17.87
2019-04-20T09:07:35.102Z,17.90
2019-04-20T09:08:44.479Z,17.97
2019-04-20T09:09:49.408Z,17.99
2019-04-20T09:10:49.200Z,17.95
2019-04-20T09:11:49.602Z,17.90
2019-04-20T09:12:45.351Z,18.02
2019-04-20T09:13:39.604Z,18.20
2019-04-20T09:14:34.683Z,18.15
2019-04-20T09:15:32.028Z,18.20
2019-04-20T09:16:40.904Z,18.10
2019-04-20T09:17:40.959Z,18.20
2019-04-20T09:18:41.770Z,18.32
2019-04-20T09:19:44.565Z,18.35
2019-04-20T09:20:46.246Z,18.44
2019-04-20T09:21:41.663Z,18.44
2019-04-20T09:22:40.204Z,18.45
2019-04-20T09:23:49.689Z,18.50
2019-04-20T09:24:52.848Z,18.47
2019-04-20T09:26:47.947Z,18.52
2019-04-20T09:27:40.861Z,18.54
2019-04-20T09:28:41.724Z,18.57
2019-04-20T09:29:40.730Z,18.62
2019-04-20T09:30:42.877Z,18.72
2019-04-20T09:31:43.566Z,18.69
2019-04-20T09:32:44.261Z,18.67
2019-04-20T09:33:48.673Z,18.73
2019-04-20T09:34:54.351Z,18.72
2019-04-20T09:35:52.208Z,18.82
2019-04-20T09:36:46.127Z,18.80
2019-04-20T09:37:48.253Z,18.87
2019-04-20T09:38:44.358Z,18.85
2019-04-20T09:39:44.974Z,18.92
2019-04-20T09:40:54.301Z,18.91
2019-04-20T09:41:55.050Z,18.98
2019-04-20T09:42:32.050Z,19.08
2019-04-20T09:43:32.427Z,19.14
2019-04-20T09:44:38.694Z,19.18
2019-04-20T09:45:38.211Z,19.19
2019-04-20T09:46:37.781Z,19.19
2019-04-20T09:47:36.998Z,19.16
2019-04-20T09:48:40.244Z,19.26
2019-04-20T09:49:42.537Z,19.43
2019-04-20T09:50:53.121Z,19.44
2019-04-20T09:51:50.069Z,19.40
2019-04-20T09:52:52.640Z,19.47
2019-04-20T09:53:43.127Z,19.50
2019-04-20T09:54:52.582Z,19.48
2019-04-20T09:55:50.649Z,19.63
2019-04-20T09:56:55.285Z,19.74
2019-04-20T09:57:50.306Z,19.76
2019-04-20T09:58:56.327Z,19.73
2019-04-20T09:59:52.709Z,19.84
2019-04-20T10:00:48.634Z,19.80
2019-04-20T10:01:41.846Z,19.78
2019-04-20T10:02:36.356Z,19.78
2019-04-20T10:03:32.991Z,19.83
2019-04-20T10:04:33.435Z,19.80
2019-04-20T10:05:33.688Z,19.91
2019-04-20T10:06:35.615Z,19.95
2019-04-20T10:07:35.612Z,20.11
2019-04-20T10:08:40.376Z,20.11
2019-04-20T10:09:39.515Z,20.28
2019-04-20T10:10:39.974Z,20.42
2019-04-20T10:11:33.350Z,20.62
2019-04-20T10:12:33.562Z,20.69
2019-04-20T10:13:34.342Z,20.66
2019-04-20T10:14:33.487Z,20.72
2019-04-20T10:15:33.540Z,20.73
2019-04-20T10:16:33.660Z,20.77
2019-04-20T10:17:35.187Z,20.85
2019-04-20T10:18:39.296Z,20.85
2019-04-20T10:19:35.959Z,20.88
2019-04-20T10:20:37.889Z,20.95
2019-04-20T10:21:33.997Z,20.92
2019-04-20T10:22:33.898Z,20.94
2019-04-20T10:23:34.560Z,21.13
2019-04-20T10:24:34.792Z,21.10
2019-04-20T10:25:33.983Z,21.19
2019-04-20T10:26:34.451Z,21.32
2019-04-20T10:27:34.742Z,21.38
2019-04-20T10:28:34.119Z,21.29
2019-04-20T10:29:35.476Z,21.40
2019-04-20T10:30:34.721Z,21.43
2019-04-20T10:31:37.701Z,21.40
2019-04-20T10:32:39.333Z,21.43
2019-04-20T10:33:35.521Z,21.43
2019-04-20T10:34:34.726Z,21.32
2019-04-20T10:35:35.823Z,21.49
2019-04-20T10:36:35.335Z,21.53
2019-04-20T10:37:35.481Z,21.59
2019-04-20T10:38:36.450Z,21.64
2019-04-20T10:39:34.642Z,21.56
2019-04-20T10:40:50.320Z,21.52
2019-04-20T10:41:44.151Z,21.56
2019-04-20T10:42:34.759Z,21.61
2019-04-20T10:43:35.017Z,21.64
2019-04-20T10:44:34.847Z,21.62
2019-04-20T10:45:35.066Z,21.62
2019-04-20T10:46:35.065Z,21.67
2019-04-20T10:47:35.018Z,21.65
2019-04-20T10:48:40.251Z,21.74
2019-04-20T10:49:35.373Z,21.69
2019-04-20T10:50:35.122Z,21.79
2019-04-20T10:51:35.584Z,21.84
2019-04-20T10:52:36.069Z,21.91
2019-04-20T10:53:36.604Z,21.88
2019-04-20T10:54:36.476Z,21.83
2019-04-20T10:55:35.568Z,21.92
2019-04-20T10:56:35.395Z,21.79
2019-04-20T10:57:35.463Z,21.94
2019-04-20T10:58:35.856Z,21.92
2019-04-20T10:59:35.534Z,22.00
2019-04-20T11:00:35.624Z,21.94
2019-04-20T11:01:35.839Z,22.07
2019-04-20T11:02:35.680Z,22.02
2019-04-20T11:03:36.582Z,22.09
2019-04-20T11:04:36.772Z,22.03
2019-04-20T11:05:35.823Z,22.03
2019-04-20T11:06:36.478Z,22.14
2019-04-20T11:07:36.706Z,22.21
2019-04-20T11:08:35.951Z,22.22
2019-04-20T11:09:36.646Z,22.22
2019-04-20T11:10:51.075Z,22.15
2019-04-20T11:11:37.068Z,22.15
2019-04-20T11:12:36.127Z,22.10
2019-04-20T11:13:37.493Z,22.14
2019-04-20T11:14:38.727Z,22.14
2019-04-20T11:15:36.689Z,22.03
2019-04-20T11:16:36.314Z,22.14
2019-04-20T11:17:37.400Z,22.02
2019-04-20T11:18:37.586Z,22.05
2019-04-20T11:19:37.128Z,22.06
2019-04-20T11:20:37.294Z,22.05
2019-04-20T11:21:36.591Z,22.20
2019-04-20T11:22:37.959Z,22.12
2019-04-20T11:23:36.643Z,22.02
2019-04-20T11:24:36.685Z,22.05
2019-04-20T11:25:37.975Z,22.03
2019-04-20T11:26:38.867Z,22.10
2019-04-20T11:27:36.814Z,22.03
2019-04-20T11:28:37.816Z,22.25
2019-04-20T11:29:38.038Z,22.25
2019-04-20T11:30:38.057Z,22.27
2019-04-20T11:31:43.101Z,22.31
2019-04-20T11:32:37.990Z,22.25
2019-04-20T11:33:38.292Z,22.28
2019-04-20T11:34:39.965Z,22.31
2019-04-20T11:35:39.646Z,22.35
2019-04-20T11:36:37.232Z,22.39
2019-04-20T11:37:37.377Z,22.42
2019-04-20T11:38:38.575Z,22.33
2019-04-20T11:39:37.368Z,22.35
2019-04-20T11:40:37.413Z,22.31
2019-04-20T11:41:38.849Z,22.25
2019-04-20T11:42:37.508Z,22.24
2019-04-20T11:43:37.762Z,22.21
2019-04-20T11:44:38.243Z,22.24
2019-04-20T11:45:38.517Z,22.17
2019-04-20T11:46:38.798Z,22.21
2019-04-20T11:47:37.787Z,22.28
2019-04-20T11:48:37.783Z,22.31
2019-04-20T11:49:37.831Z,22.36
2019-04-20T11:50:37.941Z,22.33
2019-04-20T11:51:39.186Z,22.36
2019-04-20T11:52:42.244Z,22.45
2019-04-20T11:53:38.573Z,22.37
2019-04-20T11:54:38.066Z,22.39
2019-04-20T11:55:38.331Z,22.37
2019-04-20T11:56:40.811Z,22.36
2019-04-20T11:57:39.501Z,22.42
2019-04-20T11:58:38.821Z,22.37
2019-04-20T11:59:39.053Z,22.51
2019-04-20T12:00:47.170Z,22.57
2019-04-20T12:01:49.030Z,22.61
2019-04-20T12:02:42.507Z,22.61
2019-04-20T12:03:50.607Z,22.61
2019-04-20T12:04:48.872Z,22.62
2019-04-20T12:05:44.495Z,22.60
2019-04-20T12:06:39.134Z,22.61
2019-04-20T12:07:38.686Z,22.47
2019-04-20T12:08:40.567Z,22.45
2019-04-20T12:09:39.707Z,22.51
2019-04-20T12:10:39.192Z,22.49
2019-04-20T12:11:53.484Z,22.51
2019-04-20T12:12:42.459Z,22.52
2019-04-20T12:13:38.938Z,22.57
2019-04-20T12:14:38.996Z,22.55
2019-04-20T12:15:39.049Z,22.68
2019-04-20T12:16:39.585Z,22.60
2019-04-20T12:17:39.778Z,22.65
2019-04-20T12:18:39.171Z,22.67
2019-04-20T12:19:39.795Z,22.72
2019-04-20T12:20:39.266Z,22.70
2019-04-20T12:21:39.306Z,22.68
2019-04-20T12:22:40.025Z,22.62
2019-04-20T12:23:40.345Z,22.67
2019-04-20T12:24:40.329Z,22.72
2019-04-20T12:25:41.065Z,22.70
2019-04-20T12:26:40.598Z,22.67
2019-04-20T12:27:41.961Z,22.72
2019-04-20T12:28:40.079Z,22.76
2019-04-20T12:29:40.551Z,22.85
2019-04-20T12:30:39.857Z,22.86
2019-04-20T12:31:39.848Z,22.88
2019-04-20T12:32:44.869Z,22.91
2019-04-20T12:33:40.141Z,22.91
2019-04-20T12:34:41.195Z,22.91
2019-04-20T12:35:40.349Z,22.98
2019-04-20T12:36:40.003Z,23.00
2019-04-20T12:37:40.994Z,22.98
2019-04-20T12:38:41.291Z,22.85
2019-04-20T12:39:40.147Z,22.98
2019-04-20T12:40:40.188Z,22.86
2019-04-20T12:41:49.579Z,22.92
2019-04-20T12:42:41.223Z,22.98
2019-04-20T12:43:41.522Z,22.98
2019-04-20T12:44:41.709Z,23.01
2019-04-20T12:45:40.421Z,23.01
2019-04-20T12:46:41.514Z,23.16
2019-04-20T12:47:41.714Z,23.19
2019-04-20T12:48:41.839Z,23.20
2019-04-20T12:49:41.362Z,23.16
2019-04-20T12:50:41.547Z,23.19
2019-04-20T12:51:49.977Z,23.15
2019-04-20T12:52:40.754Z,23.17
2019-04-20T12:53:40.793Z,23.19
2019-04-20T12:54:42.642Z,23.23
2019-04-20T12:55:40.964Z,23.10
2019-04-20T12:56:40.942Z,23.07
2019-04-20T12:57:40.980Z,23.05
2019-04-20T12:58:43.400Z,22.98
2019-04-20T12:59:43.851Z,23.00
2019-04-20T13:00:41.652Z,23.02
2019-04-20T13:01:41.521Z,23.02
2019-04-20T13:02:41.216Z,23.09
2019-04-20T13:03:41.532Z,22.95
2019-04-20T13:04:41.589Z,23.02
2019-04-20T13:05:41.352Z,23.04
2019-04-20T13:06:42.713Z,23.07
2019-04-20T13:07:44.867Z,23.15
2019-04-20T13:08:44.411Z,23.10
2019-04-20T13:09:41.539Z,23.15
2019-04-20T13:10:42.352Z,23.00
2019-04-20T13:11:50.352Z,23.09
2019-04-20T13:12:42.596Z,23.07
2019-04-20T13:13:41.725Z,23.07
2019-04-20T13:14:42.304Z,23.13
2019-04-20T13:15:42.474Z,23.05
2019-04-20T13:16:41.866Z,23.02
2019-04-20T13:17:42.233Z,23.01
2019-04-20T13:18:43.254Z,22.95
2019-04-20T13:19:42.007Z,23.10
2019-04-20T13:20:42.053Z,23.10
2019-04-20T13:21:42.991Z,23.13
2019-04-20T13:22:44.172Z,23.15
2019-04-20T13:23:42.746Z,23.22
2019-04-20T13:24:43.138Z,23.22